Time;durP1;ratioP1;P1;durP2;ratioP2;P2;SDS_P1;SDS_P2;PMS_P1;PMS_P2;Temp;Humidity;BMP_temperature;BMP_pressure;BME280_temperature;BME280_humidity;BME280_pressure;Samples;Min_cycle;Max_cycle;Signal;HPM_P1;HPM_P2
2022/10/17 00:00:52;;;;;;;18.35;13.75;;;14.50;99.90;;;;;;5052743;28;20074;-74
2022/10/17 00:03:19;;;;;;;21.48;14.13;;;14.60;99.90;;;;;;5058790;28;20040;-74
2022/10/17 00:05:47;;;;;;;19.85;14.35;;;14.60;99.90;;;;;;5047968;28;20036;-72
2022/10/17 00:08:25;;;;;;;22.58;14.35;;;14.60;99.90;;;;;;5051745;28;20076;-73
2022/10/17 00:11:01;;;;;;;18.17;14.02;;;14.60;99.90;;;;;;5002853;28;20075;-71
2022/10/17 00:13:28;;;;;;;20.88;14.95;;;14.70;99.90;;;;;;4999875;28;20227;-71
2022/10/17 00:15:55;;;;;;;20.48;13.98;;;14.70;99.90;;;;;;4995693;28;20054;-71
2022/10/17 00:18:22;;;;;;;22.30;14.63;;;14.80;99.90;;;;;;4998966;28;20064;-71
2022/10/17 00:20:49;;;;;;;22.63;13.25;;;14.70;99.90;;;;;;5004018;28;20502;-71
2022/10/17 00:23:16;;;;;;;21.88;14.02;;;14.80;99.90;;;;;;5000649;28;20045;-72
2022/10/17 00:25:43;;;;;;;19.23;13.65;;;14.80;99.90;;;;;;5009274;28;20045;-71
2022/10/17 00:28:11;;;;;;;17.95;13.23;;;14.80;99.90;;;;;;5001707;28;20056;-71
2022/10/17 00:30:38;;;;;;;19.48;12.82;;;14.90;99.90;;;;;;5002678;28;20046;-71
2022/10/17 00:33:05;;;;;;;17.42;14.05;;;14.90;99.90;;;;;;4999043;28;20088;-71
2022/10/17 00:35:32;;;;;;;17.33;14.15;;;14.90;99.90;;;;;;5003118;28;20042;-70
2022/10/17 00:37:58;;;;;;;21.70;14.60;;;14.80;99.90;;;;;;4996627;28;20709;-71
2022/10/17 00:40:25;;;;;;;19.38;14.88;;;14.90;99.90;;;;;;4997760;28;20621;-71
2022/10/17 00:42:52;;;;;;;22.95;15.60;;;14.90;99.90;;;;;;5001214;28;20200;-71
2022/10/17 00:45:21;;;;;;;18.25;14.88;;;14.90;99.90;;;;;;5003013;28;20030;-71
2022/10/17 00:47:52;;;;;;;19.20;14.98;;;14.90;99.90;;;;;;4997050;28;20057;-71
2022/10/17 00:50:19;;;;;;;22.85;16.17;;;14.90;99.90;;;;;;5007378;28;20344;-70
2022/10/17 00:52:48;;;;;;;22.77;14.80;;;14.90;99.90;;;;;;4994785;28;20527;-71
2022/10/17 00:55:28;;;;;;;22.92;16.42;;;14.80;99.90;;;;;;5002479;28;20048;-71
2022/10/17 00:57:56;;;;;;;20.63;16.00;;;14.80;99.90;;;;;;4996493;28;20050;-73
2022/10/17 01:00:23;;;;;;;20.60;16.80;;;14.80;99.90;;;;;;4997798;28;20045;-71
2022/10/17 01:02:50;;;;;;;22.05;15.55;;;14.70;99.90;;;;;;5001736;28;20047;-71
2022/10/17 01:05:18;;;;;;;22.88;16.20;;;14.70;99.90;;;;;;5004282;28;20038;-71
2022/10/17 01:07:46;;;;;;;21.42;15.75;;;14.70;99.90;;;;;;4995926;28;20420;-71
2022/10/17 01:10:13;;;;;;;23.15;14.80;;;14.80;99.90;;;;;;5016351;28;20528;-71
2022/10/17 01:13:07;;;;;;;21.85;15.55;;;14.80;99.90;;;;;;4997466;28;20057;-71
2022/10/17 01:15:54;;;;;;;19.50;15.23;;;14.70;99.90;;;;;;4997192;28;20562;-72
2022/10/17 01:18:40;;;;;;;21.10;15.02;;;14.80;99.90;;;;;;4995805;28;20049;-71
2022/10/17 01:21:30;;;;;;;19.73;14.73;;;14.80;99.90;;;;;;4993188;28;20536;-74
2022/10/17 01:24:00;;;;;;;20.33;16.40;;;14.80;99.90;;;;;;5000723;28;20513;-72
2022/10/17 01:26:58;;;;;;;20.90;15.85;;;14.80;99.90;;;;;;4998107;28;20048;-72
2022/10/17 01:29:42;;;;;;;21.48;15.00;;;14.80;99.90;;;;;;4997625;28;20060;-71
2022/10/17 01:32:14;;;;;;;21.25;15.68;;;14.80;99.90;;;;;;5002763;28;20452;-71
2022/10/17 01:34:58;;;;;;;20.63;16.40;;;14.70;99.90;;;;;;4995402;28;20145;-73
2022/10/17 01:37:45;;;;;;;26.05;16.08;;;14.70;99.90;;;;;;5003884;28;20144;-72
2022/10/17 01:40:24;;;;;;;22.15;15.20;;;14.70;99.90;;;;;;4975854;28;20053;-72
2022/10/17 01:43:17;;;;;;;20.23;15.40;;;14.70;99.90;;;;;;4992709;28;20154;-72
2022/10/17 01:45:52;;;;;;;24.75;15.43;;;14.70;99.90;;;;;;4994569;28;20393;-73
2022/10/17 01:48:24;;;;;;;;;;;14.70;99.90;;;;;;5000058;28;20048;-72
2022/10/17 01:50:55;;;;;;;21.05;16.02;;;14.70;99.90;;;;;;5000097;28;19929;-72
2022/10/17 01:53:30;;;;;;;21.05;15.18;;;14.50;99.90;;;;;;4999711;28;20142;-72
2022/10/17 01:56:00;;;;;;;23.13;16.35;;;14.60;99.90;;;;;;4991942;28;20129;-73
2022/10/17 01:58:32;;;;;;;19.85;15.85;;;14.70;99.90;;;;;;5004793;28;20268;-73
2022/10/17 02:01:03;;;;;;;22.70;17.23;;;14.70;99.90;;;;;;4995680;28;20057;-70
2022/10/17 02:03:33;;;;;;;23.88;15.50;;;14.50;99.90;;;;;;4998837;28;20045;-71
2022/10/17 02:06:00;;;;;;;24.85;15.55;;;14.50;99.90;;;;;;4981063;28;20045;-73
2022/10/17 02:08:38;;;;;;;24.00;16.85;;;14.50;99.90;;;;;;5000692;28;20068;-73
2022/10/17 02:11:13;;;;;;;21.90;14.25;;;14.60;99.90;;;;;;4991322;28;20042;-72
2022/10/17 02:14:08;;;;;;;21.15;16.50;;;14.60;99.90;;;;;;4999499;28;20132;-71
2022/10/17 02:16:58;;;;;;;16.60;13.52;;;14.50;99.90;;;;;;5003029;28;20496;-71
2022/10/17 02:19:29;;;;;;;19.17;15.07;;;14.50;99.90;;;;;;5003218;28;20041;-71
2022/10/17 02:22:05;;;;;;;21.13;17.10;;;14.50;99.90;;;;;;4996804;28;20046;-71
2022/10/17 02:25:04;;;;;;;24.80;16.23;;;14.60;99.90;;;;;;5000674;28;20052;-72
2022/10/17 02:27:58;;;;;;;17.20;14.38;;;14.50;99.90;;;;;;4982129;28;20057;-72
2022/10/17 02:30:34;;;;;;;16.40;14.05;;;14.50;99.90;;;;;;4993868;28;20069;-71
2022/10/17 02:33:18;;;;;;;21.30;14.30;;;14.50;99.90;;;;;;4996574;28;20197;-71
2022/10/17 02:35:50;;;;;;;17.40;14.45;;;14.60;99.90;;;;;;4997987;28;20115;-72
2022/10/17 02:38:19;;;;;;;18.00;15.20;;;14.70;99.90;;;;;;4998589;28;20137;-71
2022/10/17 02:40:48;;;;;;;20.23;13.70;;;14.60;99.90;;;;;;4997438;28;20062;-72
2022/10/17 02:43:15;;;;;;;17.73;14.32;;;14.50;99.90;;;;;;5001331;28;20057;-71
2022/10/17 02:45:41;;;;;;;15.10;13.00;;;14.60;99.90;;;;;;5006182;28;20152;-71
2022/10/17 02:48:18;;;;;;;19.17;14.25;;;14.70;99.90;;;;;;5002159;28;20053;-72
2022/10/17 02:50:59;;;;;;;15.48;12.27;;;14.60;99.90;;;;;;4997096;28;20533;-72
2022/10/17 02:53:37;;;;;;;14.20;12.60;;;14.70;99.90;;;;;;5006823;28;20412;-71
2022/10/17 02:56:13;;;;;;;14.68;12.18;;;14.80;99.90;;;;;;4998675;28;20451;-72
2022/10/17 02:58:42;;;;;;;14.02;12.30;;;14.80;99.90;;;;;;4995734;28;20046;-71
2022/10/17 03:01:09;;;;;;;16.23;11.80;;;14.90;99.90;;;;;;4995360;28;20137;-72
2022/10/17 03:03:36;;;;;;;17.55;14.15;;;14.80;99.90;;;;;;5001567;28;20049;-72
2022/10/17 03:06:02;;;;;;;16.95;12.35;;;14.80;99.90;;;;;;4998341;28;20048;-72
2022/10/17 03:08:29;;;;;;;15.60;11.80;;;14.90;99.90;;;;;;5000731;28;20040;-72
2022/10/17 03:10:56;;;;;;;13.55;12.13;;;14.90;99.90;;;;;;4989728;28;20634;-71
2022/10/17 03:13:24;;;;;;;15.75;12.30;;;14.90;99.90;;;;;;4990628;28;20336;-72
2022/10/17 03:15:51;;;;;;;16.05;12.30;;;15.00;99.90;;;;;;4996043;28;20566;-72
2022/10/17 03:18:18;;;;;;;20.42;13.00;;;14.90;99.90;;;;;;5001113;28;20136;-72
2022/10/17 03:20:47;;;;;;;15.43;13.82;;;14.90;99.90;;;;;;5000320;28;20057;-72
2022/10/17 03:23:14;;;;;;;17.25;13.90;;;14.80;99.90;;;;;;4994397;28;20598;-72
2022/10/17 03:25:41;;;;;;;16.48;14.68;;;14.80;99.90;;;;;;4992081;28;20042;-71
2022/10/17 03:28:10;;;;;;;17.42;14.98;;;14.80;99.90;;;;;;4991773;28;20160;-72
2022/10/17 03:30:37;;;;;;;16.30;14.30;;;14.80;99.90;;;;;;5001414;28;20126;-72
2022/10/17 03:33:04;;;;;;;15.40;13.50;;;14.70;99.90;;;;;;4990206;28;20393;-72
2022/10/17 03:35:38;;;;;;;13.43;12.13;;;14.70;99.90;;;;;;4998249;28;20038;-72
2022/10/17 03:38:06;;;;;;;17.85;11.75;;;14.70;99.90;;;;;;4994173;28;20370;-71
2022/10/17 03:40:33;;;;;;;14.60;12.32;;;14.70;99.90;;;;;;5003407;28;20504;-71
2022/10/17 03:42:59;;;;;;;13.35;11.95;;;14.80;99.90;;;;;;4996057;28;20130;-71
2022/10/17 03:45:28;;;;;;;14.27;11.20;;;14.80;99.90;;;;;;4995523;28;20156;-71
2022/10/17 03:47:55;;;;;;;13.50;11.15;;;14.80;99.90;;;;;;4979790;28;20269;-72
2022/10/17 03:50:21;;;;;;;17.20;12.02;;;14.80;99.90;;;;;;4991181;28;20064;-72
2022/10/17 03:52:48;;;;;;;14.73;11.73;;;14.80;99.90;;;;;;5004682;28;20475;-72
2022/10/17 03:55:16;;;;;;;12.80;11.13;;;14.80;99.90;;;;;;5022477;28;20477;-71
2022/10/17 03:57:43;;;;;;;13.25;11.57;;;14.90;99.90;;;;;;4984126;28;20523;-71
2022/10/17 04:00:12;;;;;;;14.73;10.70;;;14.80;99.90;;;;;;4993775;28;20046;-72
2022/10/17 04:02:49;;;;;;;15.40;11.23;;;14.80;99.90;;;;;;4999500;28;20056;-71
2022/10/17 04:05:17;;;;;;;15.95;11.48;;;14.90;99.90;;;;;;4985662;28;20496;-71
2022/10/17 04:07:45;;;;;;;13.80;11.45;;;14.80;99.90;;;;;;5004118;28;20037;-71
2022/10/17 04:10:13;;;;;;;15.02;12.05;;;14.80;99.90;;;;;;5005843;28;20292;-71
2022/10/17 04:12:41;;;;;;;15.93;12.48;;;14.70;99.90;;;;;;5007548;28;20050;-71
2022/10/17 04:15:08;;;;;;;15.30;11.90;;;14.80;99.90;;;;;;4998915;28;20540;-72
2022/10/17 04:17:36;;;;;;;15.02;11.95;;;14.70;99.90;;;;;;5005488;28;20288;-72
2022/10/17 04:20:05;;;;;;;16.45;12.70;;;14.70;99.90;;;;;;5001924;28;20045;-71
2022/10/17 04:22:33;;;;;;;13.55;11.75;;;14.70;99.90;;;;;;5006185;28;20048;-72
2022/10/17 04:25:00;;;;;;;15.10;12.27;;;14.70;99.90;;;;;;4998846;28;20455;-71
2022/10/17 04:27:35;;;;;;;;;;;14.70;99.90;;;;;;4996843;28;20057;-72
2022/10/17 04:30:02;;;;;;;14.48;12.98;;;14.60;99.90;;;;;;5002198;28;20002;-71
2022/10/17 04:32:32;;;;;;;17.70;13.10;;;14.60;99.90;;;;;;4999639;28;20038;-72
2022/10/17 04:35:07;;;;;;;15.30;12.50;;;14.60;99.90;;;;;;4991495;28;20045;-72
2022/10/17 04:37:34;;;;;;;15.18;12.10;;;14.60;99.90;;;;;;5005389;28;20506;-72
2022/10/17 04:40:08;;;;;;;15.15;12.90;;;14.60;99.90;;;;;;5003967;28;20042;-72
2022/10/17 04:42:35;;;;;;;13.88;11.95;;;14.50;99.90;;;;;;4997663;28;20045;-71
2022/10/17 04:45:03;;;;;;;18.58;14.02;;;14.50;99.90;;;;;;4992922;28;20038;-71
2022/10/17 04:47:30;;;;;;;15.15;13.55;;;14.40;99.90;;;;;;5001619;28;20152;-71
2022/10/17 04:49:57;;;;;;;16.05;13.95;;;14.30;99.90;;;;;;5002526;28;20045;-72
2022/10/17 04:52:24;;;;;;;21.15;14.73;;;14.30;99.90;;;;;;4999979;28;20065;-71
2022/10/17 04:54:52;;;;;;;17.92;13.68;;;14.30;99.90;;;;;;5001461;28;20389;-72
2022/10/17 04:57:19;;;;;;;24.02;14.02;;;14.30;99.90;;;;;;5009521;28;20042;-71
2022/10/17 04:59:54;;;;;;;21.63;14.90;;;14.20;99.90;;;;;;4995546;28;20800;-71
2022/10/17 05:02:47;;;;;;;22.90;15.05;;;14.20;99.90;;;;;;5005066;28;20053;-72
2022/10/17 05:05:14;;;;;;;20.67;14.05;;;14.10;99.90;;;;;;5006980;28;20669;-72
2022/10/17 05:07:43;;;;;;;22.55;15.00;;;14.20;99.90;;;;;;4998858;28;20105;-72
2022/10/17 05:10:12;;;;;;;27.42;16.58;;;14.10;99.90;;;;;;5005645;28;20081;-72
2022/10/17 05:12:42;;;;;;;17.67;13.52;;;14.10;99.90;;;;;;5000076;28;20524;-73
2022/10/17 05:15:09;;;;;;;18.15;14.25;;;14.10;99.90;;;;;;4994893;28;20037;-72
2022/10/17 05:17:36;;;;;;;14.88;12.57;;;14.10;99.90;;;;;;5002177;28;20048;-71
2022/10/17 05:20:04;;;;;;;16.45;13.15;;;14.20;99.90;;;;;;4997991;28;20053;-72
2022/10/17 05:22:32;;;;;;;19.05;14.93;;;14.20;99.90;;;;;;5000534;28;20045;-71
2022/10/17 05:25:05;;;;;;;20.48;13.27;;;14.30;99.90;;;;;;4998521;28;20161;-72
2022/10/17 05:27:32;;;;;;;17.23;12.98;;;14.20;99.90;;;;;;5004919;28;20088;-71
2022/10/17 05:30:00;;;;;;;19.00;12.90;;;14.20;99.90;;;;;;4994147;28;20042;-71
2022/10/17 05:32:29;;;;;;;15.70;12.57;;;14.20;99.90;;;;;;5001111;28;20716;-72
2022/10/17 05:34:57;;;;;;;19.20;12.38;;;14.30;99.90;;;;;;4999507;28;20412;-71
2022/10/17 05:37:24;;;;;;;14.48;12.95;;;14.30;99.90;;;;;;5002666;28;20590;-71
2022/10/17 05:39:54;;;;;;;18.63;13.00;;;14.40;99.90;;;;;;4990691;28;20062;-71
2022/10/17 05:42:21;;;;;;;14.82;13.18;;;14.40;99.90;;;;;;4998473;28;20092;-71
2022/10/17 05:44:48;;;;;;;16.27;12.23;;;14.40;99.90;;;;;;5001825;28;20054;-71
2022/10/17 05:47:17;;;;;;;15.57;13.27;;;14.50;99.90;;;;;;4996538;28;20292;-71
2022/10/17 05:49:44;;;;;;;17.80;12.75;;;14.50;99.90;;;;;;5002770;28;20088;-72
2022/10/17 05:52:20;;;;;;;16.60;12.43;;;14.50;99.90;;;;;;4999041;28;20057;-72
2022/10/17 05:54:57;;;;;;;14.50;11.75;;;14.50;99.90;;;;;;5006810;28;20120;-72
2022/10/17 05:57:25;;;;;;;15.20;11.32;;;14.60;99.90;;;;;;4993932;28;20043;-71
2022/10/17 05:59:53;;;;;;;17.40;11.75;;;14.60;99.90;;;;;;4996570;28;20490;-71
2022/10/17 06:02:20;;;;;;;18.70;11.05;;;14.70;99.90;;;;;;4998628;28;20057;-72
2022/10/17 06:04:48;;;;;;;14.98;10.88;;;14.80;99.90;;;;;;5009251;28;20056;-73
2022/10/17 06:07:17;;;;;;;14.50;10.63;;;14.80;99.90;;;;;;4985651;28;20061;-71
2022/10/17 06:09:44;;;;;;;13.00;9.98;;;14.80;99.90;;;;;;4998220;28;20508;-71
2022/10/17 06:12:11;;;;;;;12.88;9.38;;;14.90;99.90;;;;;;5014343;28;20462;-72
2022/10/17 06:14:39;;;;;;;16.33;11.48;;;14.90;99.90;;;;;;5004078;28;20091;-72
2022/10/17 06:17:06;;;;;;;16.08;11.93;;;14.90;99.90;;;;;;4998550;28;20961;-72
2022/10/17 06:19:40;;;;;;;16.42;12.32;;;14.90;99.90;;;;;;4982974;28;20384;-72
2022/10/17 06:22:07;;;;;;;14.70;11.43;;;14.90;99.90;;;;;;4993642;28;21043;-72
2022/10/17 06:24:34;;;;;;;15.27;11.20;;;14.90;99.90;;;;;;4994416;28;20041;-71
2022/10/17 06:27:03;;;;;;;12.18;10.95;;;14.90;99.90;;;;;;4992293;28;20048;-71
2022/10/17 06:29:37;;;;;;;14.93;11.25;;;14.90;99.90;;;;;;4995673;28;20054;-72
2022/10/17 06:32:06;;;;;;;13.15;10.98;;;15.00;99.90;;;;;;5001640;28;20041;-71
2022/10/17 06:34:38;;;;;;;11.40;10.27;;;15.00;99.90;;;;;;4995413;28;20077;-71
2022/10/17 06:37:05;;;;;;;12.07;10.10;;;15.00;99.90;;;;;;5000520;28;20381;-71
2022/10/17 06:39:34;;;;;;;13.95;11.00;;;15.00;99.90;;;;;;4994520;28;20091;-72
2022/10/17 06:42:21;;;;;;;14.18;11.30;;;15.00;99.90;;;;;;4993157;28;20096;-72
2022/10/17 06:45:12;;;;;;;14.23;11.02;;;15.10;99.90;;;;;;4999971;28;20046;-71
2022/10/17 06:47:57;;;;;;;12.88;11.65;;;15.00;99.90;;;;;;5001063;28;20219;-71
2022/10/17 06:50:40;;;;;;;12.90;11.40;;;15.10;99.90;;;;;;4992329;28;20350;-71
2022/10/17 06:53:23;;;;;;;15.23;13.73;;;15.00;99.90;;;;;;5000602;28;20050;-72
2022/10/17 06:56:09;;;;;;;15.52;11.77;;;15.10;99.90;;;;;;4989501;28;20397;-72
2022/10/17 06:58:52;;;;;;;12.20;10.80;;;15.10;99.90;;;;;;4999129;28;20119;-71
2022/10/17 07:01:30;;;;;;;11.23;10.32;;;15.20;99.90;;;;;;4992372;28;20403;-72
2022/10/17 07:03:59;;;;;;;14.57;11.05;;;15.40;99.90;;;;;;4994787;28;20080;-72
2022/10/17 07:06:27;;;;;;;14.88;10.93;;;15.40;99.90;;;;;;5009263;28;20519;-72
2022/10/17 07:08:56;;;;;;;11.27;10.35;;;15.50;99.90;;;;;;5002774;28;20055;-72
2022/10/17 07:11:22;;;;;;;14.05;11.95;;;15.60;99.90;;;;;;4992852;28;20038;-72
2022/10/17 07:13:51;;;;;;;12.25;11.23;;;15.70;99.90;;;;;;4994334;28;20077;-72
2022/10/17 07:16:20;;;;;;;12.77;11.45;;;15.80;99.90;;;;;;4994960;28;20053;-72
2022/10/17 07:18:51;;;;;;;12.15;11.00;;;15.80;99.90;;;;;;5008456;28;20053;-72
2022/10/17 07:21:18;;;;;;;13.88;11.95;;;16.00;99.90;;;;;;4994765;28;20196;-73
2022/10/17 07:23:45;;;;;;;12.73;11.52;;;16.00;99.90;;;;;;5011354;28;20037;-74
2022/10/17 07:26:15;;;;;;;14.18;13.05;;;16.00;99.90;;;;;;4996869;28;20041;-73
2022/10/17 07:28:44;;;;;;;14.80;13.30;;;16.10;99.90;;;;;;4987884;28;20046;-73
2022/10/17 07:31:23;;;;;;;14.20;13.00;;;16.10;99.90;;;;;;4986695;28;20526;-75
2022/10/17 07:33:50;;;;;;;14.00;12.98;;;16.20;99.90;;;;;;4999196;28;20050;-74
2022/10/17 07:36:18;;;;;;;14.55;13.45;;;16.20;99.90;;;;;;4978206;28;20037;-73
2022/10/17 07:38:45;;;;;;;14.55;13.30;;;16.30;99.90;;;;;;4998644;28;20062;-74
2022/10/17 07:41:12;;;;;;;13.98;12.75;;;16.40;99.90;;;;;;4982830;28;20053;-74
2022/10/17 07:43:46;;;;;;;20.55;13.68;;;16.40;99.90;;;;;;5000440;28;20161;-73
2022/10/17 07:46:16;;;;;;;15.70;14.10;;;16.40;99.90;;;;;;5006549;28;20041;-73
2022/10/17 07:48:44;;;;;;;15.20;13.82;;;16.40;99.90;;;;;;5001252;28;20117;-74
2022/10/17 07:51:10;;;;;;;15.30;13.93;;;16.40;99.90;;;;;;4988886;28;20050;-73
2022/10/17 07:53:38;;;;;;;15.88;14.68;;;16.50;99.90;;;;;;5001132;28;20071;-74
2022/10/17 07:56:10;;;;;;;15.90;14.38;;;16.60;99.90;;;;;;5007394;28;20123;-73
2022/10/17 07:58:37;;;;;;;15.93;14.40;;;16.70;99.90;;;;;;5013965;28;20519;-75
2022/10/17 08:01:09;;;;;;;15.45;14.05;;;16.70;99.90;;;;;;4993685;28;20048;-75
2022/10/17 08:03:42;;;;;;;16.02;14.60;;;16.70;99.90;;;;;;5005807;28;20045;-74
2022/10/17 08:06:09;;;;;;;14.85;13.70;;;16.70;99.90;;;;;;5000482;28;20057;-74
2022/10/17 08:08:35;;;;;;;15.80;14.65;;;17.00;99.90;;;;;;4997510;28;20052;-74
2022/10/17 08:11:09;;;;;;;15.82;14.82;;;17.00;99.90;;;;;;4993305;28;20332;-74
2022/10/17 08:13:36;;;;;;;16.35;15.15;;;17.20;99.90;;;;;;4998511;28;20041;-74
2022/10/17 08:16:06;;;;;;;15.50;14.60;;;17.30;99.90;;;;;;5001715;28;20044;-74
2022/10/17 08:18:34;;;;;;;15.43;14.07;;;17.40;99.90;;;;;;5003199;28;20157;-74
2022/10/17 08:21:05;;;;;;;16.33;14.93;;;17.40;99.90;;;;;;4993427;28;20042;-75
2022/10/17 08:23:31;;;;;;;16.88;15.57;;;17.40;99.90;;;;;;4995036;28;20050;-74
2022/10/17 08:25:59;;;;;;;17.67;16.15;;;17.40;99.90;;;;;;4996605;28;20184;-74
2022/10/17 08:28:26;;;;;;;18.40;16.15;;;17.40;99.90;;;;;;4998538;28;20046;-73
2022/10/17 08:31:04;;;;;;;17.13;15.82;;;17.50;99.90;;;;;;5021137;22;20037;-72
2022/10/17 08:33:32;;;;;;;17.27;16.15;;;17.60;99.90;;;;;;5038859;28;20263;-71
2022/10/17 08:35:59;;;;;;;19.30;17.73;;;17.60;99.90;;;;;;5032233;28;20123;-72
2022/10/17 08:38:31;;;;;;;17.92;16.92;;;17.70;99.90;;;;;;5036140;28;20064;-71
2022/10/17 08:41:12;;;;;;;19.30;17.90;;;17.60;99.90;;;;;;5034425;28;20226;-70
2022/10/17 08:43:54;;;;;;;19.17;17.85;;;17.60;99.90;;;;;;5041245;28;20049;-71
2022/10/17 08:46:21;;;;;;;19.75;18.38;;;17.60;99.90;;;;;;5042281;28;21901;-71
2022/10/17 08:48:50;;;;;;;19.25;17.77;;;17.60;99.90;;;;;;5044743;28;20414;-71
2022/10/17 08:51:23;;;;;;;20.70;19.20;;;17.70;99.90;;;;;;5041811;28;20522;-71
2022/10/17 08:54:13;;;;;;;21.23;19.85;;;17.80;99.90;;;;;;5043582;28;20414;-72
2022/10/17 08:56:47;;;;;;;21.05;19.00;;;17.80;99.90;;;;;;5030937;28;20132;-72
2022/10/17 08:59:26;;;;;;;;;;;17.90;99.90;;;;;;5034664;28;20053;-71
2022/10/17 09:02:08;;;;;;;21.00;19.63;;;17.90;99.90;;;;;;5035579;28;19921;-71
2022/10/17 09:04:55;;;;;;;22.00;20.25;;;18.00;99.90;;;;;;5030072;28;20048;-71
2022/10/17 09:07:48;;;;;;;22.95;20.75;;;18.00;99.90;;;;;;5033261;28;20049;-71
2022/10/17 09:10:39;;;;;;;23.58;21.85;;;18.20;99.90;;;;;;5032157;28;20045;-71
2022/10/17 09:13:36;;;;;;;22.98;21.25;;;18.20;99.90;;;;;;5033577;28;20138;-71
2022/10/17 09:16:13;;;;;;;23.08;20.88;;;18.20;99.90;;;;;;5033020;28;20060;-72
2022/10/17 09:18:45;;;;;;;22.33;20.63;;;18.10;99.90;;;;;;5033169;28;20049;-72
2022/10/17 09:21:26;;;;;;;23.02;21.25;;;18.10;99.90;;;;;;5033878;28;20040;-71
2022/10/17 09:23:59;;;;;;;22.80;20.80;;;18.00;99.90;;;;;;5037525;28;20511;-70
2022/10/17 09:26:38;;;;;;;22.75;20.80;;;18.00;99.90;;;;;;5030133;28;20053;-71
2022/10/17 09:29:19;;;;;;;22.02;20.52;;;18.00;99.90;;;;;;5035162;28;20041;-72
2022/10/17 09:32:02;;;;;;;23.58;21.98;;;18.20;99.90;;;;;;5041301;28;20041;-71
2022/10/17 09:34:32;;;;;;;23.70;22.00;;;18.40;99.90;;;;;;5034643;28;20124;-72
2022/10/17 09:37:00;;;;;;;23.42;21.90;;;18.50;99.90;;;;;;5036457;28;20045;-71
2022/10/17 09:39:30;;;;;;;23.42;21.63;;;18.70;99.90;;;;;;5034865;28;20081;-73
2022/10/17 09:41:59;;;;;;;24.70;22.85;;;18.80;99.90;;;;;;5036737;28;20049;-72
2022/10/17 09:44:46;;;;;;;24.33;22.73;;;18.90;99.90;;;;;;5034115;28;20053;-73
2022/10/17 09:47:33;;;;;;;24.77;22.92;;;19.20;99.90;;;;;;5031466;28;20044;-72
2022/10/17 09:50:01;;;;;;;24.70;22.80;;;19.30;99.90;;;;;;5035380;28;20044;-73
2022/10/17 09:52:35;;;;;;;24.73;22.90;;;19.20;99.90;;;;;;5017217;28;20045;-73
2022/10/17 09:55:06;;;;;;;27.03;24.93;;;19.20;99.90;;;;;;5034511;28;20041;-73
2022/10/17 09:57:55;;;;;;;26.77;24.55;;;19.40;99.90;;;;;;5033359;28;20318;-73
2022/10/17 10:00:25;;;;;;;27.15;24.77;;;19.40;99.90;;;;;;5031518;28;20359;-73
2022/10/17 10:03:15;;;;;;;25.52;23.50;;;19.60;99.90;;;;;;5035983;28;20489;-73
2022/10/17 10:06:02;;;;;;;26.95;24.98;;;19.90;99.90;;;;;;5033425;28;20056;-73
2022/10/17 10:08:47;;;;;;;26.98;25.13;;;20.00;99.90;;;;;;5034439;28;20045;-73
2022/10/17 10:11:16;;;;;;;26.67;24.85;;;20.10;99.90;;;;;;5033058;28;20044;-73
2022/10/17 10:13:45;;;;;;;27.05;25.33;;;20.30;99.90;;;;;;5037327;28;20056;-74
2022/10/17 10:16:30;;;;;;;27.90;25.92;;;20.40;99.90;;;;;;5034650;28;20040;-74
2022/10/17 10:18:57;;;;;;;27.15;25.40;;;20.40;99.90;;;;;;5038686;28;20059;-73
2022/10/17 10:21:26;;;;;;;26.15;24.35;;;20.30;99.90;;;;;;5031404;28;20341;-74
2022/10/17 10:24:08;;;;;;;26.50;24.65;;;20.30;99.90;;;;;;5036363;28;20048;-73
2022/10/17 10:26:46;;;;;;;26.65;24.65;;;20.30;99.90;;;;;;5033758;28;20041;-73
2022/10/17 10:29:29;;;;;;;26.90;24.83;;;20.40;99.90;;;;;;5031315;28;20504;-73
2022/10/17 10:32:10;;;;;;;26.10;24.25;;;20.50;99.90;;;;;;5031576;28;20134;-73
2022/10/17 10:34:51;;;;;;;26.20;24.27;;;20.50;99.90;;;;;;5034136;28;20170;-73
2022/10/17 10:37:24;;;;;;;24.80;23.25;;;20.40;99.90;;;;;;5033069;28;20048;-74
2022/10/17 10:39:54;;;;;;;24.75;23.15;;;20.60;99.90;;;;;;5036806;28;20048;-73
2022/10/17 10:42:27;;;;;;;24.48;22.67;;;20.80;99.90;;;;;;5032745;28;20136;-73
2022/10/17 10:45:00;;;;;;;25.52;23.63;;;21.00;99.90;;;;;;5033965;28;20523;-74
2022/10/17 10:47:29;;;;;;;26.35;24.75;;;21.40;99.90;;;;;;5032459;28;20512;-73
2022/10/17 10:50:37;;;;;;;26.13;24.20;;;21.50;99.90;;;;;;5035533;28;20479;-73
2022/10/17 10:53:31;;;;;;;25.73;23.60;;;21.60;99.90;;;;;;4979175;28;20056;-73
2022/10/17 10:56:17;;;;;;;25.88;23.58;;;21.80;99.90;;;;;;5034190;28;20256;-73
2022/10/17 10:59:03;;;;;;;26.70;24.67;;;22.00;99.90;;;;;;5031424;28;20052;-73
2022/10/17 11:01:37;;;;;;;24.83;23.17;;;22.30;99.90;;;;;;5032741;28;20204;-73
2022/10/17 11:04:31;;;;;;;24.55;22.85;;;22.30;99.90;;;;;;5036376;28;20055;-73
2022/10/17 11:07:05;;;;;;;25.00;22.92;;;22.40;99.90;;;;;;5031710;28;20048;-73
2022/10/17 11:09:59;;;;;;;24.13;22.42;;;22.50;99.90;;;;;;5034552;28;20713;-74
2022/10/17 11:12:34;;;;;;;24.35;22.60;;;22.70;99.90;;;;;;5032775;28;20044;-73
2022/10/17 11:15:20;;;;;;;24.70;22.98;;;22.80;99.90;;;;;;5036200;28;20140;-73
2022/10/17 11:17:55;;;;;;;24.48;22.90;;;23.00;99.90;;;;;;5030464;28;20094;-73
2022/10/17 11:20:46;;;;;;;23.95;22.27;;;22.80;99.90;;;;;;5030834;28;20052;-73
2022/10/17 11:23:19;;;;;;;23.60;21.92;;;22.80;99.90;;;;;;5033020;28;20080;-73
2022/10/17 11:25:51;;;;;;;23.48;21.70;;;22.70;99.90;;;;;;5034789;28;20545;-73
2022/10/17 11:28:21;;;;;;;24.23;22.42;;;22.90;99.90;;;;;;5030261;28;20048;-73
2022/10/17 11:30:59;;;;;;;24.13;22.35;;;23.10;99.90;;;;;;5040476;28;20048;-73
2022/10/17 11:33:40;;;;;;;23.52;21.95;;;23.20;99.90;;;;;;5032120;28;20041;-73
2022/10/17 11:36:09;;;;;;;23.75;22.25;;;23.10;99.90;;;;;;5032069;28;20029;-73
2022/10/17 11:38:39;;;;;;;23.30;21.85;;;23.20;99.90;;;;;;5033483;28;20442;-73
2022/10/17 11:41:12;;;;;;;23.30;21.80;;;23.10;99.90;;;;;;5033198;28;20641;-73
2022/10/17 11:43:50;;;;;;;23.45;21.73;;;23.00;99.90;;;;;;5028707;28;20061;-73
2022/10/17 11:46:22;;;;;;;23.60;21.80;;;22.80;99.90;;;;;;5031003;28;20124;-73
2022/10/17 11:49:17;;;;;;;23.73;21.90;;;22.80;99.90;;;;;;5036531;28;20084;-73
2022/10/17 11:51:52;;;;;;;24.55;22.63;;;22.80;99.90;;;;;;5035172;28;20457;-73
2022/10/17 11:54:44;;;;;;;22.60;21.10;;;23.00;99.90;;;;;;5032436;28;20045;-73
2022/10/17 11:57:48;;;;;;;23.38;21.80;;;23.30;99.90;;;;;;5032912;28;20033;-74
2022/10/17 12:00:21;;;;;;;23.73;22.05;;;23.30;99.90;;;;;;5029681;28;20045;-74
2022/10/17 12:03:09;;;;;;;23.33;21.70;;;23.10;99.90;;;;;;5034439;28;20053;-73
2022/10/17 12:05:52;;;;;;;23.10;21.40;;;22.90;99.90;;;;;;5032872;28;20112;-73
2022/10/17 12:08:56;;;;;;;24.35;22.40;;;22.80;99.90;;;;;;5031923;28;20081;-73
2022/10/17 12:11:52;;;;;;;23.60;21.83;;;22.60;99.90;;;;;;5018436;28;20053;-73
2022/10/17 12:14:37;;;;;;;23.98;22.25;;;22.50;99.90;;;;;;5035113;28;20047;-74
2022/10/17 12:17:21;;;;;;;;;;;22.50;99.90;;;;;;5038124;28;20152;-73
2022/10/17 12:19:48;;;;;;;23.55;21.88;;;22.40;99.90;;;;;;5039716;28;20285;-72
2022/10/17 12:22:24;;;;;;;23.58;21.63;;;22.30;99.90;;;;;;5035480;28;20495;-73
2022/10/17 12:24:57;;;;;;;24.70;22.67;;;22.30;99.90;;;;;;5039411;28;20053;-73
2022/10/17 12:27:45;;;;;;;23.77;22.08;;;22.20;99.90;;;;;;5035598;28;20049;-73
2022/10/17 12:30:12;;;;;;;23.42;21.55;;;22.20;99.90;;;;;;5042102;28;20434;-75
2022/10/17 12:32:55;;;;;;;24.35;22.42;;;22.10;99.90;;;;;;5030905;28;20517;-73
2022/10/17 12:35:34;;;;;;;22.75;21.30;;;22.00;99.90;;;;;;5035903;28;20624;-73
2022/10/17 12:38:16;;;;;;;23.10;21.48;;;21.90;99.90;;;;;;5037839;28;20536;-73
2022/10/17 12:40:43;;;;;;;22.70;21.10;;;21.70;99.90;;;;;;5037543;28;20404;-73
2022/10/17 12:43:14;;;;;;;23.30;21.70;;;21.70;99.90;;;;;;5035285;28;20295;-73
2022/10/17 12:45:51;;;;;;;24.17;22.60;;;21.60;99.90;;;;;;5038762;28;20135;-72
2022/10/17 12:48:33;;;;;;;25.50;23.23;;;21.60;99.90;;;;;;5032908;28;20047;-72
2022/10/17 12:51:11;;;;;;;24.95;23.00;;;21.60;99.90;;;;;;5036802;28;20118;-73
2022/10/17 12:54:12;;;;;;;25.48;23.30;;;21.60;99.90;;;;;;5032364;28;20143;-73
2022/10/17 12:56:45;;;;;;;25.00;23.02;;;21.60;99.90;;;;;;5028421;28;20056;-72
2022/10/17 12:59:21;;;;;;;23.42;21.83;;;21.40;99.90;;;;;;5034269;28;20380;-73
2022/10/17 13:01:54;;;;;;;24.85;22.75;;;21.40;99.90;;;;;;5029724;28;20185;-73